Time,TemperatureF,DewpointF,PressureIn,WindDirection,WindDirectionDegrees,WindSpeedMPH,WindSpeedGustMPH,Humidity,HourlyPrecipIn,Conditions,Clouds,dailyrainin,SolarRadiationWatts/m^2,SoftwareType,DateUTC
2013-04-30 00:41:00,42.0,28.0,-100.00,SSW,212,4.0,13.0,57,-99.99,,,0.01,0.000000,,2013-04-30 07:41:00,
2013-04-30 00:52:00,42.0,28.0,-100.00,SSW,212,4.0,13.0,57,-99.99,,,0.01,0.000000,,2013-04-30 07:52:00,
2013-04-30 01:02:00,42.0,28.0,-100.00,SSW,212,4.0,13.0,57,-99.99,,,0.01,0.000000,,2013-04-30 08:02:00,
2013-04-30 01:11:00,42.0,28.0,-100.00,SSW,212,4.0,13.0,57,-99.99,,,0.01,0.000000,,2013-04-30 08:11:00,
2013-04-30 01:42:00,41.0,27.0,-100.00,SW,214,4.0,14.0,55,-99.99,,,0.01,0.000000,,2013-04-30 08:42:00,
2013-04-30 01:52:00,41.0,27.0,-100.00,SW,214,4.0,14.0,55,-99.99,,,0.01,0.000000,,2013-04-30 08:52:00,
2013-04-30 02:01:00,41.0,27.0,-100.00,SW,214,4.0,14.0,55,-99.99,,,0.01,0.000000,,2013-04-30 09:01:00,
2013-04-30 02:11:00,41.0,27.0,-100.00,SW,214,4.0,14.0,55,-99.99,,,0.01,0.000000,,2013-04-30 09:11:00,
2013-04-30 06:41:00,41.0,28.0,-100.00,South,184,3.0,7.0,60,-99.99,,,0.00,6.860000,,2013-04-30 13:41:00,
2013-04-30 06:52:00,41.0,28.0,-100.00,South,184,3.0,7.0,60,-99.99,,,0.00,6.860000,,2013-04-30 13:52:00,
2013-04-30 07:01:00,41.0,28.0,-100.00,South,184,3.0,7.0,60,-99.99,,,0.00,6.860000,,2013-04-30 14:01:00,
2013-04-30 07:11:00,41.0,28.0,-100.00,South,184,3.0,7.0,60,-99.99,,,0.00,6.860000,,2013-04-30 14:11:00,
2013-04-30 11:41:00,49.0,30.0,-100.00,West,259,3.0,11.0,47,-99.99,,,0.00,763.799988,,2013-04-30 18:41:00,
2013-04-30 12:11:00,49.0,30.0,-100.00,West,259,3.0,11.0,47,-99.99,,,0.00,763.799988,,2013-04-30 19:11:00,
2013-04-30 12:42:00,49.0,28.0,-100.00,WSW,255,3.0,10.0,44,-99.99,,,0.00,735.559998,,2013-04-30 19:42:00,
2013-04-30 12:52:00,49.0,28.0,-100.00,WSW,255,3.0,10.0,44,-99.99,,,0.00,735.559998,,2013-04-30 19:52:00,
2013-04-30 13:02:00,49.0,28.0,-100.00,WSW,255,3.0,10.0,44,-99.99,,,0.00,735.559998,,2013-04-30 20:02:00,
2013-04-30 13:11:00,49.0,28.0,-100.00,WSW,255,3.0,10.0,44,-99.99,,,0.00,735.559998,,2013-04-30 20:11:00,
2013-04-30 13:42:00,50.0,29.0,-100.00,SW,229,4.0,12.0,43,-99.99,,,0.00,699.409973,,2013-04-30 20:42:00,
2013-04-30 13:52:00,50.0,29.0,-100.00,SW,229,4.0,12.0,43,-99.99,,,0.00,699.409973,,2013-04-30 20:52:00,
2013-04-30 14:01:00,50.0,29.0,-100.00,SW,229,4.0,12.0,43,-99.99,,,0.00,699.409973,,2013-04-30 21:01:00,
2013-04-30 14:11:00,50.0,29.0,-100.00,SW,229,4.0,12.0,43,-99.99,,,0.00,699.409973,,2013-04-30 21:11:00,
2013-04-30 15:41:00,55.0,29.0,-100.00,SW,214,3.0,10.0,36,-99.99,,,0.00,939.059998,,2013-04-30 22:41:00,
2013-04-30 15:53:00,55.0,29.0,-100.00,SW,214,3.0,10.0,36,-99.99,,,0.00,939.059998,,2013-04-30 22:53:00,
2013-04-30 16:02:00,55.0,29.0,-100.00,SW,214,3.0,10.0,36,-99.99,,,0.00,939.059998,,2013-04-30 23:02:00,
2013-04-30 16:11:00,55.0,29.0,-100.00,SW,214,3.0,10.0,36,-99.99,,,0.00,939.059998,,2013-04-30 23:11:00,
2013-04-30 16:42:00,54.0,29.0,-100.00,WSW,243,3.0,19.0,38,-99.99,,,0.00,774.609985,,2013-04-30 23:42:00,
2013-04-30 16:52:00,54.0,29.0,-100.00,WSW,243,3.0,19.0,38,-99.99,,,0.00,774.609985,,2013-04-30 23:52:00,
2013-04-30 17:01:00,54.0,29.0,-100.00,WSW,243,3.0,19.0,38,-99.99,,,0.00,774.609985,,2013-05-01 00:01:00,
2013-04-30 17:11:00,54.0,29.0,-100.00,WSW,243,3.0,19.0,38,-99.99,,,0.00,774.609985,,2013-05-01 00:11:00,
2013-04-30 17:32:00,55.0,30.0,-100.00,SW,214,3.0,13.0,38,-99.99,,,-99.99,543.679993,,2013-05-01 00:32:00,
2013-04-30 17:42:00,55.0,30.0,-100.00,SW,214,3.0,13.0,38,-99.99,,,-99.99,543.679993,,2013-05-01 00:42:00,
2013-04-30 17:52:00,55.0,30.0,-100.00,SW,214,3.0,13.0,38,-99.99,,,-99.99,543.679993,,2013-05-01 00:52:00,
2013-04-30 18:01:00,55.0,30.0,-100.00,SW,214,3.0,13.0,38,-99.99,,,-99.99,543.679993,,2013-05-01 01:01:00,
2013-04-30 18:11:00,55.0,30.0,-100.00,SW,214,3.0,13.0,38,-99.99,,,-99.99,543.679993,,2013-05-01 01:11:00,
2013-04-30 18:41:00,52.0,29.0,-100.00,WSW,256,1.0,4.0,41,-99.99,,,-99.99,200.830002,,2013-05-01 01:41:00,
2013-04-30 18:52:00,52.0,29.0,-100.00,WSW,256,1.0,4.0,41,-99.99,,,-99.99,200.830002,,2013-05-01 01:52:00,
2013-04-30 19:02:00,52.0,29.0,-100.00,WSW,256,1.0,4.0,41,-99.99,,,-99.99,200.830002,,2013-05-01 02:02:00,
2013-04-30 19:11:00,52.0,29.0,-100.00,WSW,256,1.0,4.0,41,-99.99,,,-99.99,200.830002,,2013-05-01 02:11:00,
2013-04-30 19:42:00,50.0,29.0,-100.00,SW,231,4.0,10.0,45,-99.99,,,-99.99,73.680000,,2013-05-01 02:42:00,
2013-04-30 19:52:00,50.0,29.0,-100.00,SW,231,4.0,10.0,45,-99.99,,,-99.99,73.680000,,2013-05-01 02:52:00,
2013-04-30 20:01:00,50.0,29.0,-100.00,SW,231,4.0,10.0,45,-99.99,,,-99.99,73.680000,,2013-05-01 03:01:00,
2013-04-30 20:11:00,50.0,29.0,-100.00,SW,231,4.0,10.0,45,-99.99,,,-99.99,73.680000,,2013-05-01 03:11:00,
2013-04-30 20:42:00,48.0,30.0,-100.00,SW,232,3.0,10.0,49,-99.99,,,-99.99,7.440000,,2013-05-01 03:42:00,
2013-04-30 20:53:00,48.0,30.0,-100.00,SW,232,3.0,10.0,49,-99.99,,,-99.99,7.440000,,2013-05-01 03:53:00,
2013-04-30 21:03:00,48.0,30.0,-100.00,SW,232,3.0,10.0,49,-99.99,,,-99.99,7.440000,,2013-05-01 04:03:00,
2013-04-30 21:12:00,48.0,30.0,-100.00,SW,232,3.0,10.0,49,-99.99,,,-99.99,7.440000,,2013-05-01 04:12:00,
2013-04-30 21:32:00,41.0,32.0,-100.00,ENE,74,0.0,2.0,68,-99.99,,,-99.99,0.000000,,2013-05-01 04:32:00,
2013-04-30 21:42:00,41.0,32.0,-100.00,ENE,74,0.0,2.0,68,-99.99,,,-99.99,0.000000,,2013-05-01 04:42:00,
2013-04-30 21:52:00,41.0,32.0,-100.00,ENE,74,0.0,2.0,68,-99.99,,,-99.99,0.000000,,2013-05-01 04:52:00,
2013-04-30 22:02:00,41.0,32.0,-100.00,ENE,74,0.0,2.0,68,-99.99,,,-99.99,0.000000,,2013-05-01 05:02:00,
2013-04-30 22:11:00,41.0,32.0,-100.00,ENE,74,0.0,2.0,68,-99.99,,,-99.99,0.000000,,2013-05-01 05:11:00,
2013-04-30 22:41:00,39.0,32.0,-100.00,SW,225,1.0,4.0,75,-99.99,,,-99.99,0.000000,,2013-05-01 05:41:00,
2013-04-30 22:52:00,39.0,32.0,-100.00,SW,225,1.0,4.0,75,-99.99,,,-99.99,0.000000,,2013-05-01 05:52:00,
2013-04-30 23:02:00,39.0,32.0,-100.00,SW,225,1.0,4.0,75,-99.99,,,-99.99,0.000000,,2013-05-01 06:02:00,
2013-04-30 23:11:00,39.0,32.0,-100.00,SW,225,1.0,4.0,75,-99.99,,,-99.99,0.000000,,2013-05-01 06:11:00,
2013-04-30 23:42:00,38.0,32.0,-100.00,SSW,195,2.0,5.0,79,-99.99,,,0.00,0.000000,,2013-05-01 06:42:00,
2013-04-30 23:52:00,38.0,32.0,-100.00,SSW,195,2.0,5.0,79,-99.99,,,0.00,0.000000,,2013-05-01 06:52:00,